Portada
METAR-TAF:

METAR-TAF

Aeropuertos :

Aeropuerto Internacional de Bagdad

Bagdad, Iraq

latitud: 33-15-45N, longitud: 44-14-04E, altitud: 35 m

Observación

El informe se hizo hace 33 minutos, a las 10:00 UTC
Viento 5 kt con dirección variable
Temperatura 25°C
Humedad 32%
Presión 1011 hPa
Visibilidad 10 km o más
Escasas nubes a una altura de 3000 ft

METAR: ORBI 191000Z VRB05KT 9999 FEW030 25/07 Q1011 NOSIG

Hora: 13:33 (10:33 UTC)

Pronóstico

El informe se hizo hace 6 horas y 33 minutos, a las 04:00 UTC
Pronóstico válido del 19 a las 06 UTC al 20 a las 06 UTC
Viento 5 kt del oeste-noroeste
Visibilidad 10 km o más
sin nubes por debajo de 1500 m y sin presencia de cumulonimbus.

TAF: ORBI 190400Z 1906/2006 30005KT CAVOK

Observaciones y pronósticos meteorológicos de más de 4000 aeropuertos (mensajes METAR y TAF).

Los puntos amarillos y rojos representan las estaciones disponibles.

Ponga el ratón en el punto deseado para ver el nombre de la estación.

Haga clic para ver las observaciones y los pronósticos meteorológicos.

Para cambiar el mapa : haga clic en los botones verdes con una cruz de color negro para hacer un zoom, en el botón verde con un guión para alejar o en las flechas verdes para mapas adyacentes.


METAR-TAF: